createdAt,value
2022-08-05T00:00:53.682Z,22.05
2022-08-05T00:03:20.335Z,22.10
2022-08-05T00:06:06.507Z,21.83
2022-08-05T00:08:36.241Z,21.89
2022-08-05T00:11:07.510Z,21.78
2022-08-05T00:13:48.091Z,21.75
2022-08-05T00:16:35.673Z,21.82
2022-08-05T00:19:04.333Z,21.68
2022-08-05T00:21:31.018Z,21.48
2022-08-05T00:24:09.979Z,22.01
2022-08-05T00:26:38.739Z,21.94
2022-08-05T00:29:05.429Z,21.57
2022-08-05T00:31:41.361Z,21.55
2022-08-05T00:34:55.704Z,21.90
2022-08-05T00:37:20.097Z,21.75
2022-08-05T00:39:58.669Z,21.43
2022-08-05T00:42:33.972Z,21.27
2022-08-05T00:45:01.945Z,21.16
2022-08-05T00:47:31.614Z,21.12
2022-08-05T00:50:15.580Z,21.37
2022-08-05T00:52:42.159Z,21.03
2022-08-05T00:55:12.293Z,21.23
2022-08-05T00:57:58.118Z,21.25
2022-08-05T01:00:27.371Z,21.12
2022-08-05T01:02:54.199Z,21.31
2022-08-05T01:05:21.950Z,20.88
2022-08-05T01:08:41.179Z,20.91
2022-08-05T01:10:51.654Z,20.90
2022-08-05T01:13:58.525Z,21.21
2022-08-05T01:16:37.849Z,20.83
2022-08-05T01:19:46.215Z,21.22
2022-08-05T01:22:32.223Z,20.72
2022-08-05T01:25:40.704Z,21.12
2022-08-05T01:28:30.481Z,21.09
2022-08-05T01:31:04.610Z,20.73
2022-08-05T01:33:39.701Z,21.06
2022-08-05T01:36:16.147Z,20.90
2022-08-05T01:38:45.623Z,20.98
2022-08-05T01:41:18.086Z,20.61
2022-08-05T01:43:49.843Z,20.87
2022-08-05T01:46:42.777Z,20.53
2022-08-05T01:49:23.352Z,20.84
2022-08-05T01:51:56.052Z,21.06
2022-08-05T01:54:27.300Z,20.42
2022-08-05T01:58:09.567Z,21.05
2022-08-05T01:59:47.579Z,20.78
2022-08-05T02:02:16.587Z,20.41
2022-08-05T02:04:49.663Z,20.64
2022-08-05T02:07:21.928Z,20.59
2022-08-05T02:09:50.351Z,20.24
2022-08-05T02:12:32.958Z,20.47
2022-08-05T02:15:07.903Z,20.77
2022-08-05T02:18:31.053Z,20.65
2022-08-05T02:20:44.031Z,20.68
2022-08-05T02:23:14.913Z,20.65
2022-08-05T02:25:50.121Z,20.32
2022-08-05T02:28:28.816Z,20.70
2022-08-05T02:31:14.370Z,20.55
2022-08-05T02:33:48.409Z,20.25
2022-08-05T02:36:19.046Z,19.94
2022-08-05T02:38:52.957Z,19.67
2022-08-05T02:41:22.755Z,19.67
2022-08-05T02:44:02.786Z,19.71
2022-08-05T02:46:53.149Z,19.43
2022-08-05T02:49:27.221Z,19.12
2022-08-05T02:52:04.963Z,19.39
2022-08-05T02:54:35.617Z,19.15
2022-08-05T02:57:10.069Z,19.02
2022-08-05T02:59:55.395Z,19.16
2022-08-05T03:02:28.896Z,18.86
2022-08-05T03:04:57.859Z,18.98
2022-08-05T03:07:59.449Z,19.08
2022-08-05T03:10:15.812Z,19.48
2022-08-05T03:12:48.826Z,19.26
2022-08-05T03:15:20.287Z,19.41
2022-08-05T03:17:46.926Z,19.80
2022-08-05T03:20:13.849Z,19.43
2022-08-05T03:22:46.780Z,19.58
2022-08-05T03:25:32.530Z,19.67
2022-08-05T03:28:03.582Z,19.80
2022-08-05T03:30:34.097Z,19.99
2022-08-05T03:33:02.906Z,19.68
2022-08-05T03:35:30.775Z,20.18
2022-08-05T03:38:00.618Z,19.74
2022-08-05T03:40:31.939Z,19.14
2022-08-05T03:43:01.675Z,18.62
2022-08-05T03:45:58.170Z,18.98
2022-08-05T03:48:29.678Z,18.04
2022-08-05T03:52:38.943Z,18.25
2022-08-05T03:55:52.579Z,18.11
2022-08-05T03:57:16.424Z,17.66
2022-08-05T04:00:11.474Z,17.51
2022-08-05T04:02:57.928Z,17.61
2022-08-05T04:05:37.459Z,18.15
2022-08-05T04:08:14.722Z,18.50
2022-08-05T04:10:57.743Z,18.23
2022-08-05T04:13:25.895Z,18.49
2022-08-05T04:16:14.383Z,18.40
2022-08-05T04:18:41.299Z,18.55
2022-08-05T04:21:10.898Z,19.12
2022-08-05T04:24:06.068Z,18.86
2022-08-05T04:26:25.855Z,19.28
2022-08-05T04:28:59.822Z,19.12
2022-08-05T04:31:27.700Z,18.92
2022-08-05T04:34:31.644Z,19.27
2022-08-05T04:36:52.364Z,19.56
2022-08-05T04:39:19.968Z,19.64
2022-08-05T04:41:48.325Z,19.31
2022-08-05T04:44:16.231Z,19.39
2022-08-05T04:46:51.158Z,19.15
2022-08-05T04:49:19.407Z,19.12
2022-08-05T04:52:05.105Z,19.13
2022-08-05T04:54:34.344Z,19.01
2022-08-05T04:57:00.995Z,18.51
2022-08-05T04:59:40.486Z,18.99
2022-08-05T05:02:36.083Z,18.81
2022-08-05T05:05:02.805Z,18.83
2022-08-05T05:07:45.767Z,18.73
2022-08-05T05:10:19.781Z,18.91
2022-08-05T05:12:46.340Z,18.97
2022-08-05T05:15:17.602Z,19.12
2022-08-05T05:18:04.318Z,19.05
2022-08-05T05:20:32.115Z,19.50
2022-08-05T05:23:08.227Z,19.21
2022-08-05T05:25:46.357Z,19.49
2022-08-05T05:28:14.571Z,18.83
2022-08-05T05:30:42.409Z,19.35
2022-08-05T05:33:16.850Z,19.35
2022-08-05T05:35:45.855Z,19.41
2022-08-05T05:38:14.307Z,19.47
2022-08-05T05:40:49.989Z,19.70
2022-08-05T05:43:27.629Z,19.47
2022-08-05T05:46:12.216Z,19.55
2022-08-05T05:48:43.923Z,19.41
2022-08-05T05:51:15.203Z,19.20
2022-08-05T05:53:54.102Z,19.00
2022-08-05T05:56:31.943Z,19.06
2022-08-05T05:59:04.089Z,19.02
2022-08-05T06:01:39.405Z,18.80
2022-08-05T06:04:12.658Z,19.17
2022-08-05T06:06:47.564Z,19.06
2022-08-05T06:09:17.322Z,19.40
2022-08-05T06:11:59.527Z,18.77
2022-08-05T06:14:28.862Z,18.82
2022-08-05T06:16:56.837Z,19.31
2022-08-05T06:19:33.915Z,19.20
2022-08-05T06:22:06.497Z,18.72
2022-08-05T06:24:35.329Z,19.09
2022-08-05T06:27:04.032Z,19.12
2022-08-05T06:29:49.257Z,19.18
2022-08-05T06:32:24.944Z,19.55
2022-08-05T06:34:56.673Z,19.08
2022-08-05T06:37:56.339Z,18.82
2022-08-05T06:40:12.651Z,19.06
2022-08-05T06:42:40.751Z,18.98
2022-08-05T06:45:09.205Z,19.00
2022-08-05T06:48:36.810Z,19.03
2022-08-05T06:50:24.202Z,19.30
2022-08-05T06:52:58.462Z,18.81
2022-08-05T06:55:30.424Z,19.23
2022-08-05T06:58:20.066Z,19.39
2022-08-05T07:00:50.991Z,19.27
2022-08-05T07:03:17.839Z,19.31
2022-08-05T07:05:46.374Z,19.07
2022-08-05T07:08:13.499Z,18.95
2022-08-05T07:10:52.350Z,19.08
2022-08-05T07:13:56.728Z,19.30
2022-08-05T07:16:08.656Z,19.11
2022-08-05T07:18:38.797Z,19.13
2022-08-05T07:21:14.688Z,19.29
2022-08-05T07:23:52.605Z,19.29
2022-08-05T07:26:22.696Z,19.31
2022-08-05T07:28:51.757Z,19.36
2022-08-05T07:31:20.143Z,19.16
2022-08-05T07:34:08.379Z,19.52
2022-08-05T07:36:35.023Z,19.46
2022-08-05T07:39:07.202Z,19.91
2022-08-05T07:42:14.748Z,19.75
2022-08-05T07:44:38.111Z,19.63
2022-08-05T07:47:07.894Z,19.99
2022-08-05T07:49:43.650Z,20.40
2022-08-05T07:52:21.853Z,20.06
2022-08-05T07:54:51.038Z,20.12
2022-08-05T07:57:52.216Z,20.04
2022-08-05T08:00:11.561Z,20.87
2022-08-05T08:03:14.822Z,21.05
2022-08-05T08:05:28.115Z,21.33
2022-08-05T08:07:59.784Z,21.63
2022-08-05T08:10:27.658Z,21.29
2022-08-05T08:12:54.332Z,21.57
2022-08-05T08:15:37.292Z,21.42
2022-08-05T08:18:14.397Z,21.76
2022-08-05T08:21:00.613Z,22.40
2022-08-05T08:24:02.125Z,22.06
2022-08-05T08:26:14.755Z,21.30
2022-08-05T08:28:59.023Z,21.29
2022-08-05T08:31:28.087Z,21.49
2022-08-05T08:33:59.659Z,21.28
2022-08-05T08:36:37.535Z,21.41
2022-08-05T08:39:15.547Z,20.86
2022-08-05T08:41:52.115Z,21.56
2022-08-05T08:45:22.447Z,22.15
2022-08-05T08:48:07.620Z,22.00
2022-08-05T08:50:30.580Z,20.95
2022-08-05T08:53:07.955Z,21.89
2022-08-05T08:56:04.459Z,21.26
2022-08-05T08:58:37.547Z,21.41
2022-08-05T09:01:16.400Z,21.55
2022-08-05T09:03:46.393Z,21.79
2022-08-05T09:06:18.474Z,22.01
2022-08-05T09:08:46.807Z,22.80
2022-08-05T09:11:14.127Z,22.78
2022-08-05T09:14:10.132Z,23.36
2022-08-05T09:16:29.097Z,22.87
2022-08-05T09:18:56.100Z,22.90
2022-08-05T09:22:23.368Z,23.13
2022-08-05T09:24:12.950Z,22.98
2022-08-05T09:26:44.851Z,22.77
2022-08-05T09:29:11.427Z,22.92
2022-08-05T09:32:41.723Z,23.36
2022-08-05T09:34:52.010Z,21.17
2022-08-05T09:38:12.415Z,22.81
2022-08-05T09:40:07.587Z,23.02
2022-08-05T09:42:43.533Z,22.73
2022-08-05T09:46:04.586Z,22.12
2022-08-05T09:48:19.100Z,22.53
2022-08-05T09:51:14.976Z,22.82
2022-08-05T09:53:54.380Z,23.39
2022-08-05T09:56:31.865Z,22.80
2022-08-05T09:59:01.067Z,23.32
2022-08-05T10:01:33.010Z,23.53
2022-08-05T10:04:04.454Z,23.64
2022-08-05T10:06:39.601Z,23.20
2022-08-05T10:09:25.167Z,23.90
2022-08-05T10:12:18.848Z,23.91
2022-08-05T10:15:16.916Z,23.55
2022-08-05T10:17:54.447Z,23.07
2022-08-05T10:20:24.073Z,23.28
2022-08-05T10:22:52.658Z,22.71
2022-08-05T10:25:20.163Z,23.49
2022-08-05T10:28:13.551Z,23.33
2022-08-05T10:31:20.448Z,22.18
2022-08-05T10:33:24.783Z,21.75
2022-08-05T10:35:59.185Z,23.42
2022-08-05T10:38:33.241Z,21.42
2022-08-05T10:41:28.141Z,23.51
2022-08-05T10:44:18.279Z,21.52
2022-08-05T10:46:53.993Z,23.41
2022-08-05T10:49:26.951Z,21.28
2022-08-05T10:51:59.728Z,24.01
2022-08-05T10:54:56.431Z,23.48
2022-08-05T10:57:29.544Z,24.07
2022-08-05T11:00:20.884Z,23.51
2022-08-05T11:03:25.377Z,23.50
2022-08-05T11:06:23.126Z,23.73
2022-08-05T11:09:46.141Z,23.79
2022-08-05T11:12:37.274Z,23.65
2022-08-05T11:15:20.202Z,23.72
2022-08-05T11:17:59.953Z,23.62
2022-08-05T11:20:43.704Z,23.55
2022-08-05T11:23:33.239Z,24.10
2022-08-05T11:26:29.267Z,24.32
2022-08-05T11:29:11.513Z,24.41
2022-08-05T11:31:57.453Z,23.78
2022-08-05T11:34:39.302Z,24.82
2022-08-05T11:38:30.692Z,24.38
2022-08-05T11:40:00.626Z,24.79
2022-08-05T11:42:40.346Z,24.84
2022-08-05T11:45:14.200Z,24.79
2022-08-05T11:47:50.544Z,22.84
2022-08-05T11:50:21.863Z,24.92
2022-08-05T11:52:51.121Z,25.00
2022-08-05T11:55:19.938Z,24.98
2022-08-05T11:58:08.697Z,25.27
2022-08-05T12:00:38.381Z,24.91
2022-08-05T12:03:28.726Z,24.39
2022-08-05T12:06:06.083Z,23.98
2022-08-05T12:08:50.945Z,23.85
2022-08-05T12:11:22.898Z,24.89
2022-08-05T12:14:05.991Z,24.83
2022-08-05T12:16:38.505Z,24.74
2022-08-05T12:19:10.109Z,24.99
2022-08-05T12:21:56.790Z,24.82
2022-08-05T12:24:24.633Z,25.12
2022-08-05T12:26:53.217Z,25.36
2022-08-05T12:29:23.408Z,25.37
2022-08-05T12:31:58.252Z,25.67
2022-08-05T12:34:32.376Z,25.86
2022-08-05T12:37:03.583Z,23.74
2022-08-05T12:39:37.153Z,25.80
2022-08-05T12:42:14.999Z,23.68
2022-08-05T12:44:43.848Z,25.41
2022-08-05T12:47:12.898Z,25.23
2022-08-05T12:50:03.113Z,24.72
2022-08-05T12:52:39.506Z,24.81
2022-08-05T12:55:22.061Z,24.69
2022-08-05T12:58:49.557Z,25.03
2022-08-05T13:02:01.517Z,24.92
2022-08-05T13:03:41.354Z,24.99
2022-08-05T13:06:17.062Z,24.45
2022-08-05T13:08:50.735Z,24.01
2022-08-05T13:11:47.058Z,24.61
2022-08-05T13:14:19.453Z,25.04
2022-08-05T13:16:56.650Z,24.67
2022-08-05T13:19:25.525Z,25.22
2022-08-05T13:21:56.777Z,23.30
2022-08-05T13:24:27.671Z,25.03
2022-08-05T13:27:10.901Z,24.81
2022-08-05T13:29:38.080Z,24.68
2022-08-05T13:32:05.662Z,24.38
2022-08-05T13:34:32.801Z,23.87
2022-08-05T13:36:59.490Z,24.01
2022-08-05T13:40:14.188Z,24.13
2022-08-05T13:42:14.258Z,24.44
2022-08-05T13:44:45.359Z,24.19
2022-08-05T13:47:34.606Z,24.66
2022-08-05T13:50:04.617Z,23.87
2022-08-05T13:52:35.164Z,24.16
2022-08-05T13:55:01.988Z,24.06
2022-08-05T13:57:50.592Z,23.34
2022-08-05T14:00:26.882Z,22.87
2022-08-05T14:02:56.728Z,22.02
2022-08-05T14:05:48.074Z,21.32
2022-08-05T14:08:20.262Z,21.23
2022-08-05T14:10:48.571Z,20.78
2022-08-05T14:13:16.053Z,21.24
2022-08-05T14:16:08.273Z,21.23
2022-08-05T14:18:29.535Z,20.82
2022-08-05T14:20:56.059Z,20.85
2022-08-05T14:23:25.913Z,20.96
2022-08-05T14:25:54.620Z,20.37
2022-08-05T14:28:29.282Z,19.99
2022-08-05T14:30:57.280Z,20.24
2022-08-05T14:33:24.281Z,19.35
2022-08-05T14:35:53.990Z,19.27
2022-08-05T14:38:32.557Z,19.74
2022-08-05T14:41:05.571Z,19.94
2022-08-05T14:43:51.616Z,19.71
2022-08-05T14:46:49.377Z,18.97
2022-08-05T14:49:16.108Z,19.15
2022-08-05T14:51:43.216Z,18.70
2022-08-05T14:54:29.923Z,18.30
2022-08-05T14:56:59.607Z,18.35
2022-08-05T14:59:29.438Z,18.09
2022-08-05T15:02:02.456Z,17.88
2022-08-05T15:04:29.549Z,17.53
2022-08-05T15:06:56.562Z,15.82
2022-08-05T15:09:51.448Z,16.48
2022-08-05T15:12:16.504Z,16.94
2022-08-05T15:14:49.525Z,16.79
2022-08-05T15:17:46.321Z,16.17
2022-08-05T15:20:06.324Z,16.18
2022-08-05T15:22:36.946Z,15.75
2022-08-05T15:25:13.654Z,15.80
2022-08-05T15:27:43.050Z,16.56
2022-08-05T15:30:19.298Z,16.02
2022-08-05T15:32:46.569Z,16.50
2022-08-05T15:35:13.422Z,16.72
2022-08-05T15:38:34.810Z,16.62
2022-08-05T15:41:02.714Z,17.03
2022-08-05T15:43:20.581Z,16.70
2022-08-05T15:46:00.510Z,16.51
2022-08-05T15:48:28.466Z,16.65
2022-08-05T15:50:55.227Z,16.65
2022-08-05T15:53:23.286Z,16.30
2022-08-05T15:56:03.766Z,16.44
2022-08-05T15:58:35.478Z,16.61
2022-08-05T16:01:16.939Z,16.22
2022-08-05T16:03:45.442Z,15.85
2022-08-05T16:06:15.520Z,15.98
2022-08-05T16:08:47.687Z,16.14
2022-08-05T16:11:17.308Z,16.12
2022-08-05T16:13:44.215Z,16.32
2022-08-05T16:16:11.203Z,16.36
2022-08-05T16:18:51.848Z,15.74
2022-08-05T16:21:20.805Z,15.88
2022-08-05T16:24:40.547Z,15.58
2022-08-05T16:27:00.545Z,16.49
2022-08-05T16:29:28.862Z,16.72
2022-08-05T16:31:58.324Z,17.35
2022-08-05T16:34:26.565Z,17.42
2022-08-05T16:36:54.009Z,16.82
2022-08-05T16:39:20.995Z,16.77
2022-08-05T16:42:13.971Z,17.29
2022-08-05T16:44:34.640Z,17.18
2022-08-05T16:47:04.426Z,16.69
2022-08-05T16:49:31.017Z,16.24
2022-08-05T16:51:57.630Z,15.98
2022-08-05T16:54:31.857Z,16.57
2022-08-05T16:57:00.166Z,16.38
2022-08-05T16:59:30.755Z,16.23
2022-08-05T17:01:57.911Z,15.98
2022-08-05T17:04:29.156Z,16.07
2022-08-05T17:07:00.485Z,16.27
2022-08-05T17:09:29.408Z,16.80
2022-08-05T17:11:59.631Z,16.86
2022-08-05T17:14:37.137Z,16.64
2022-08-05T17:17:06.527Z,16.54
2022-08-05T17:19:36.130Z,16.08
2022-08-05T17:22:03.782Z,16.23
2022-08-05T17:24:38.663Z,16.67
2022-08-05T17:27:10.247Z,16.78
2022-08-05T17:29:41.101Z,16.84
2022-08-05T17:32:17.311Z,17.09
2022-08-05T17:34:49.320Z,16.70
2022-08-05T17:37:35.988Z,16.88
2022-08-05T17:40:12.130Z,16.66
2022-08-05T17:42:41.650Z,16.55
2022-08-05T17:45:20.208Z,16.27
2022-08-05T17:47:55.046Z,15.83
2022-08-05T17:50:30.515Z,16.32
2022-08-05T17:52:59.789Z,16.63
2022-08-05T17:55:38.407Z,16.90
2022-08-05T17:58:13.772Z,17.10
2022-08-05T18:00:45.407Z,17.39
2022-08-05T18:03:28.134Z,17.50
2022-08-05T18:06:02.382Z,17.58
2022-08-05T18:08:33.287Z,17.78
2022-08-05T18:11:00.959Z,17.46
2022-08-05T18:13:36.573Z,17.29
2022-08-05T18:16:04.774Z,16.99
2022-08-05T18:18:31.394Z,16.81
2022-08-05T18:21:13.398Z,16.05
2022-08-05T18:23:48.026Z,16.39
2022-08-05T18:26:14.694Z,16.47
2022-08-05T18:28:46.375Z,16.33
2022-08-05T18:31:13.213Z,16.33
2022-08-05T18:33:47.025Z,16.45
2022-08-05T18:36:17.263Z,15.72
2022-08-05T18:38:46.421Z,16.19
2022-08-05T18:41:59.259Z,16.23
2022-08-05T18:44:05.574Z,15.94
2022-08-05T18:46:33.504Z,16.07
2022-08-05T18:49:00.680Z,16.23
2022-08-05T18:52:05.400Z,16.64
2022-08-05T18:54:14.001Z,16.93
2022-08-05T18:56:40.569Z,16.96
2022-08-05T18:59:42.777Z,16.72
2022-08-05T19:01:58.450Z,17.03
2022-08-05T19:04:26.216Z,17.32
2022-08-05T19:06:54.809Z,16.95
2022-08-05T19:09:21.818Z,16.87
2022-08-05T19:12:00.611Z,16.84
2022-08-05T19:14:44.964Z,16.80
2022-08-05T19:17:16.270Z,17.36
2022-08-05T19:19:47.069Z,17.12
2022-08-05T19:22:17.189Z,16.82
2022-08-05T19:24:55.983Z,17.03
2022-08-05T19:27:27.706Z,17.15
2022-08-05T19:29:55.346Z,17.44
2022-08-05T19:32:23.363Z,17.07
2022-08-05T19:34:54.606Z,16.87
2022-08-05T19:37:22.204Z,16.56
2022-08-05T19:39:58.185Z,16.21
2022-08-05T19:42:35.332Z,16.52
2022-08-05T19:45:06.057Z,16.49
2022-08-05T19:47:33.928Z,16.54
2022-08-05T19:50:00.721Z,16.07
2022-08-05T19:52:31.519Z,15.96
2022-08-05T19:55:00.370Z,15.69
2022-08-05T19:57:57.267Z,15.87
2022-08-05T20:00:20.791Z,16.19
2022-08-05T20:02:47.486Z,16.15
2022-08-05T20:05:16.420Z,15.84
2022-08-05T20:07:55.055Z,16.05
2022-08-05T20:10:25.116Z,16.06
2022-08-05T20:12:52.180Z,16.16
2022-08-05T20:15:47.822Z,16.21
2022-08-05T20:18:35.823Z,16.50
2022-08-05T20:20:59.921Z,15.46
2022-08-05T20:23:40.362Z,15.60
2022-08-05T20:26:15.961Z,15.33
2022-08-05T20:28:44.921Z,15.16
2022-08-05T20:31:11.630Z,15.01
2022-08-05T20:33:38.171Z,15.39
2022-08-05T20:36:10.062Z,15.64
2022-08-05T20:38:38.020Z,15.49
2022-08-05T20:41:08.171Z,15.79
2022-08-05T20:43:59.988Z,14.73
2022-08-05T20:46:24.965Z,14.89
2022-08-05T20:48:52.355Z,14.80
2022-08-05T20:51:18.957Z,14.56
2022-08-05T20:53:56.860Z,14.13
2022-08-05T20:56:31.885Z,14.27
2022-08-05T20:59:13.874Z,14.18
2022-08-05T21:01:42.787Z,14.49
2022-08-05T21:04:10.001Z,14.42
2022-08-05T21:06:45.159Z,14.63
2022-08-05T21:09:14.214Z,14.61
2022-08-05T21:12:10.287Z,14.61
2022-08-05T21:14:29.087Z,14.48
2022-08-05T21:17:06.110Z,14.34
2022-08-05T21:19:46.481Z,14.62
2022-08-05T21:22:17.596Z,15.02
2022-08-05T21:24:51.664Z,14.69
2022-08-05T21:27:27.234Z,14.73
2022-08-05T21:29:55.906Z,14.65
2022-08-05T21:32:27.681Z,14.81
2022-08-05T21:35:17.459Z,14.74
2022-08-05T21:37:43.707Z,14.81
2022-08-05T21:40:14.315Z,14.88
2022-08-05T21:42:44.450Z,14.58
2022-08-05T21:45:11.835Z,14.20
2022-08-05T21:47:56.873Z,14.06
2022-08-05T21:50:26.520Z,14.31
2022-08-05T21:52:58.864Z,14.65
2022-08-05T21:56:01.540Z,14.91
2022-08-05T21:58:20.305Z,14.96
2022-08-05T22:00:51.881Z,14.58
2022-08-05T22:03:20.542Z,14.29
2022-08-05T22:06:06.125Z,14.39
2022-08-05T22:08:34.966Z,14.26
2022-08-05T22:11:01.590Z,14.31
2022-08-05T22:14:32.643Z,14.45
2022-08-05T22:16:39.516Z,14.59
2022-08-05T22:19:02.193Z,14.33
2022-08-05T22:21:29.066Z,14.54
2022-08-05T22:24:02.891Z,14.64
2022-08-05T22:26:35.907Z,15.10
2022-08-05T22:29:03.307Z,14.90
2022-08-05T22:31:31.036Z,14.91
2022-08-05T22:34:11.306Z,14.88
2022-08-05T22:36:47.187Z,14.87
2022-08-05T22:39:15.210Z,14.90
2022-08-05T22:42:10.152Z,14.82
2022-08-05T22:44:29.192Z,15.22
2022-08-05T22:46:55.911Z,15.01
2022-08-05T22:50:17.809Z,14.85
2022-08-05T22:52:13.832Z,14.99
2022-08-05T22:54:49.624Z,14.43
2022-08-05T22:57:16.284Z,14.36
2022-08-05T22:59:50.392Z,14.41
2022-08-05T23:02:29.256Z,13.86
2022-08-05T23:05:01.885Z,13.97
2022-08-05T23:07:32.700Z,13.66
2022-08-05T23:10:11.420Z,13.73
2022-08-05T23:12:38.133Z,13.22
2022-08-05T23:15:08.674Z,12.62
2022-08-05T23:17:37.678Z,12.81
2022-08-05T23:20:23.567Z,12.85
2022-08-05T23:22:55.815Z,12.89
2022-08-05T23:25:51.090Z,12.77
2022-08-05T23:28:10.624Z,12.86
2022-08-05T23:30:39.667Z,12.64
2022-08-05T23:33:07.526Z,12.94
2022-08-05T23:35:49.041Z,12.49
2022-08-05T23:38:16.145Z,12.79
2022-08-05T23:40:49.779Z,12.36
2022-08-05T23:43:25.712Z,12.90
2022-08-05T23:46:21.210Z,12.66
2022-08-05T23:49:00.490Z,12.81
2022-08-05T23:51:38.581Z,12.61
2022-08-05T23:54:08.428Z,12.15
2022-08-05T23:56:37.937Z,12.13
2022-08-05T23:59:05.926Z,12.66
